sensor_id;sensor_type;location;lat;lon;timestamp;P1;durP1;ratioP1;P2;durP2;ratioP2
22211;SDS011;11275;52.488;13.462;2023-07-29T00:00:51;4.30;;;3.90;;
22211;SDS011;11275;52.488;13.462;2023-07-29T00:03:16;4.78;;;4.25;;
22211;SDS011;11275;52.488;13.462;2023-07-29T00:05:42;5.00;;;4.50;;
22211;SDS011;11275;52.488;13.462;2023-07-29T00:08:08;4.75;;;4.40;;
22211;SDS011;11275;52.488;13.462;2023-07-29T00:10:36;5.18;;;4.45;;
22211;SDS011;11275;52.488;13.462;2023-07-29T00:13:03;4.60;;;4.20;;
22211;SDS011;11275;52.488;13.462;2023-07-29T00:15:29;4.90;;;4.50;;
22211;SDS011;11275;52.488;13.462;2023-07-29T00:17:55;4.75;;;4.35;;
22211;SDS011;11275;52.488;13.462;2023-07-29T00:20:20;4.88;;;4.47;;
22211;SDS011;11275;52.488;13.462;2023-07-29T00:22:46;5.10;;;4.60;;
22211;SDS011;11275;52.488;13.462;2023-07-29T00:25:14;4.53;;;4.13;;
22211;SDS011;11275;52.488;13.462;2023-07-29T00:27:40;4.85;;;4.38;;
22211;SDS011;11275;52.488;13.462;2023-07-29T00:30:07;5.05;;;4.57;;
22211;SDS011;11275;52.488;13.462;2023-07-29T00:32:35;4.70;;;4.28;;
22211;SDS011;11275;52.488;13.462;2023-07-29T00:35:01;5.13;;;4.63;;
22211;SDS011;11275;52.488;13.462;2023-07-29T00:37:27;6.57;;;5.03;;
22211;SDS011;11275;52.488;13.462;2023-07-29T00:39:53;4.50;;;4.10;;
22211;SDS011;11275;52.488;13.462;2023-07-29T00:42:19;5.13;;;4.70;;
22211;SDS011;11275;52.488;13.462;2023-07-29T00:44:45;4.70;;;4.30;;
22211;SDS011;11275;52.488;13.462;2023-07-29T00:47:10;4.85;;;4.45;;
22211;SDS011;11275;52.488;13.462;2023-07-29T00:49:37;5.70;;;4.47;;
22211;SDS011;11275;52.488;13.462;2023-07-29T00:52:03;5.18;;;4.70;;
22211;SDS011;11275;52.488;13.462;2023-07-29T00:54:29;5.35;;;4.80;;
22211;SDS011;11275;52.488;13.462;2023-07-29T00:56:55;6.47;;;4.78;;
22211;SDS011;11275;52.488;13.462;2023-07-29T00:59:21;5.10;;;4.60;;
22211;SDS011;11275;52.488;13.462;2023-07-29T01:01:47;5.25;;;4.25;;
22211;SDS011;11275;52.488;13.462;2023-07-29T01:04:13;4.95;;;4.40;;
22211;SDS011;11275;52.488;13.462;2023-07-29T01:06:58;4.35;;;4.05;;
22211;SDS011;11275;52.488;13.462;2023-07-29T01:15:16;4.57;;;4.18;;
22211;SDS011;11275;52.488;13.462;2023-07-29T01:17:43;4.80;;;4.40;;
22211;SDS011;11275;52.488;13.462;2023-07-29T01:20:15;7.22;;;4.82;;
22211;SDS011;11275;52.488;13.462;2023-07-29T01:22:42;5.05;;;4.60;;
22211;SDS011;11275;52.488;13.462;2023-07-29T01:25:09;5.32;;;4.82;;
22211;SDS011;11275;52.488;13.462;2023-07-29T01:27:34;4.85;;;4.45;;
22211;SDS011;11275;52.488;13.462;2023-07-29T01:30:00;5.28;;;4.60;;
22211;SDS011;11275;52.488;13.462;2023-07-29T01:33:32;5.00;;;3.90;;
22211;SDS011;11275;52.488;13.462;2023-07-29T01:35:33;4.63;;;4.23;;
22211;SDS011;11275;52.488;13.462;2023-07-29T01:38:08;4.53;;;4.07;;
22211;SDS011;11275;52.488;13.462;2023-07-29T01:40:38;4.57;;;4.18;;
22211;SDS011;11275;52.488;13.462;2023-07-29T01:43:05;5.15;;;4.70;;
22211;SDS011;11275;52.488;13.462;2023-07-29T01:45:33;5.35;;;4.32;;
22211;SDS011;11275;52.488;13.462;2023-07-29T01:48:03;4.57;;;4.17;;
22211;SDS011;11275;52.488;13.462;2023-07-29T01:50:29;4.30;;;4.00;;
22211;SDS011;11275;52.488;13.462;2023-07-29T01:52:57;5.18;;;4.78;;
22211;SDS011;11275;52.488;13.462;2023-07-29T01:55:23;6.50;;;4.40;;
22211;SDS011;11275;52.488;13.462;2023-07-29T01:57:48;4.75;;;4.22;;
22211;SDS011;11275;52.488;13.462;2023-07-29T02:00:15;4.65;;;4.25;;
22211;SDS011;11275;52.488;13.462;2023-07-29T02:02:41;4.55;;;4.15;;
22211;SDS011;11275;52.488;13.462;2023-07-29T02:05:06;4.38;;;4.03;;
22211;SDS011;11275;52.488;13.462;2023-07-29T02:07:37;4.15;;;3.28;;
22211;SDS011;11275;52.488;13.462;2023-07-29T02:10:03;4.07;;;3.67;;
22211;SDS011;11275;52.488;13.462;2023-07-29T02:12:29;3.83;;;3.53;;
22211;SDS011;11275;52.488;13.462;2023-07-29T02:14:54;4.95;;;3.95;;
22211;SDS011;11275;52.488;13.462;2023-07-29T02:17:20;4.45;;;4.05;;
22211;SDS011;11275;52.488;13.462;2023-07-29T02:19:46;4.10;;;3.70;;
22211;SDS011;11275;52.488;13.462;2023-07-29T02:22:16;3.97;;;3.65;;
22211;SDS011;11275;52.488;13.462;2023-07-29T02:24:42;4.13;;;3.80;;
22211;SDS011;11275;52.488;13.462;2023-07-29T02:27:08;4.13;;;3.78;;
22211;SDS011;11275;52.488;13.462;2023-07-29T02:29:33;4.60;;;4.10;;
22211;SDS011;11275;52.488;13.462;2023-07-29T02:31:59;4.50;;;4.10;;
22211;SDS011;11275;52.488;13.462;2023-07-29T02:34:25;5.05;;;4.57;;
22211;SDS011;11275;52.488;13.462;2023-07-29T02:36:51;4.45;;;4.05;;
22211;SDS011;11275;52.488;13.462;2023-07-29T02:39:16;4.47;;;4.07;;
22211;SDS011;11275;52.488;13.462;2023-07-29T02:41:42;4.45;;;4.10;;
22211;SDS011;11275;52.488;13.462;2023-07-29T02:44:08;4.30;;;4.00;;
22211;SDS011;11275;52.488;13.462;2023-07-29T02:46:33;4.20;;;3.80;;
22211;SDS011;11275;52.488;13.462;2023-07-29T02:48:59;4.88;;;4.47;;
22211;SDS011;11275;52.488;13.462;2023-07-29T02:51:24;4.93;;;4.53;;
22211;SDS011;11275;52.488;13.462;2023-07-29T02:53:50;4.82;;;4.43;;
22211;SDS011;11275;52.488;13.462;2023-07-29T02:56:16;4.75;;;4.35;;
22211;SDS011;11275;52.488;13.462;2023-07-29T02:58:41;4.57;;;4.18;;
22211;SDS011;11275;52.488;13.462;2023-07-29T03:01:07;4.40;;;4.00;;
22211;SDS011;11275;52.488;13.462;2023-07-29T03:03:33;4.72;;;4.32;;
22211;SDS011;11275;52.488;13.462;2023-07-29T03:06:03;4.15;;;3.85;;
22211;SDS011;11275;52.488;13.462;2023-07-29T03:08:30;5.30;;;4.80;;
22211;SDS011;11275;52.488;13.462;2023-07-29T03:10:57;6.65;;;5.35;;
22211;SDS011;11275;52.488;13.462;2023-07-29T03:13:23;5.43;;;4.93;;
22211;SDS011;11275;52.488;13.462;2023-07-29T03:15:49;5.53;;;5.07;;
22211;SDS011;11275;52.488;13.462;2023-07-29T03:18:15;5.20;;;4.72;;
22211;SDS011;11275;52.488;13.462;2023-07-29T03:20:41;4.47;;;4.07;;
22211;SDS011;11275;52.488;13.462;2023-07-29T03:23:07;3.95;;;3.65;;
22211;SDS011;11275;52.488;13.462;2023-07-29T03:25:32;4.57;;;4.20;;
22211;SDS011;11275;52.488;13.462;2023-07-29T03:27:58;4.70;;;4.30;;
22211;SDS011;11275;52.488;13.462;2023-07-29T03:30:24;4.40;;;4.00;;
22211;SDS011;11275;52.488;13.462;2023-07-29T03:32:50;4.80;;;4.25;;
22211;SDS011;11275;52.488;13.462;2023-07-29T03:35:16;4.00;;;3.70;;
22211;SDS011;11275;52.488;13.462;2023-07-29T03:37:41;5.03;;;4.63;;
22211;SDS011;11275;52.488;13.462;2023-07-29T03:40:07;4.60;;;4.20;;
22211;SDS011;11275;52.488;13.462;2023-07-29T03:42:34;4.22;;;3.90;;
22211;SDS011;11275;52.488;13.462;2023-07-29T03:45:00;5.22;;;4.57;;
22211;SDS011;11275;52.488;13.462;2023-07-29T03:47:26;5.38;;;4.97;;
22211;SDS011;11275;52.488;13.462;2023-07-29T03:49:52;5.90;;;5.40;;
22211;SDS011;11275;52.488;13.462;2023-07-29T03:52:18;5.88;;;4.60;;
22211;SDS011;11275;52.488;13.462;2023-07-29T03:54:44;6.13;;;5.53;;
22211;SDS011;11275;52.488;13.462;2023-07-29T03:57:10;5.70;;;5.20;;
22211;SDS011;11275;52.488;13.462;2023-07-29T03:59:35;5.50;;;4.25;;
22211;SDS011;11275;52.488;13.462;2023-07-29T04:02:01;7.40;;;4.80;;
22211;SDS011;11275;52.488;13.462;2023-07-29T04:04:27;4.68;;;4.30;;
22211;SDS011;11275;52.488;13.462;2023-07-29T04:06:52;5.13;;;4.70;;
22211;SDS011;11275;52.488;13.462;2023-07-29T04:09:18;4.43;;;4.03;;
22211;SDS011;11275;52.488;13.462;2023-07-29T04:11:43;4.88;;;4.47;;
22211;SDS011;11275;52.488;13.462;2023-07-29T04:14:09;5.30;;;4.90;;
22211;SDS011;11275;52.488;13.462;2023-07-29T04:16:35;4.80;;;4.40;;
22211;SDS011;11275;52.488;13.462;2023-07-29T04:19:00;4.80;;;4.40;;
22211;SDS011;11275;52.488;13.462;2023-07-29T04:21:26;5.35;;;4.85;;
22211;SDS011;11275;52.488;13.462;2023-07-29T04:23:52;4.57;;;4.18;;
22211;SDS011;11275;52.488;13.462;2023-07-29T04:26:17;4.93;;;4.50;;
22211;SDS011;11275;52.488;13.462;2023-07-29T04:28:43;4.63;;;4.20;;
22211;SDS011;11275;52.488;13.462;2023-07-29T04:31:09;4.97;;;4.57;;
22211;SDS011;11275;52.488;13.462;2023-07-29T04:33:34;5.22;;;4.50;;
22211;SDS011;11275;52.488;13.462;2023-07-29T04:36:00;4.72;;;4.32;;
22211;SDS011;11275;52.488;13.462;2023-07-29T04:38:30;4.30;;;3.90;;
22211;SDS011;11275;52.488;13.462;2023-07-29T04:41:00;4.72;;;4.30;;
22211;SDS011;11275;52.488;13.462;2023-07-29T04:43:30;5.10;;;4.63;;
22211;SDS011;11275;52.488;13.462;2023-07-29T04:45:57;5.35;;;4.85;;
22211;SDS011;11275;52.488;13.462;2023-07-29T04:48:22;4.68;;;4.22;;
22211;SDS011;11275;52.488;13.462;2023-07-29T04:50:48;5.78;;;4.53;;
22211;SDS011;11275;52.488;13.462;2023-07-29T04:53:14;6.13;;;4.93;;
22211;SDS011;11275;52.488;13.462;2023-07-29T04:55:43;5.18;;;4.70;;
22211;SDS011;11275;52.488;13.462;2023-07-29T04:58:08;4.85;;;4.45;;
22211;SDS011;11275;52.488;13.462;2023-07-29T05:00:34;5.30;;;4.80;;
22211;SDS011;11275;52.488;13.462;2023-07-29T05:03:00;5.40;;;5.00;;
22211;SDS011;11275;52.488;13.462;2023-07-29T05:05:26;5.10;;;4.60;;
22211;SDS011;11275;52.488;13.462;2023-07-29T05:07:52;5.40;;;4.80;;
22211;SDS011;11275;52.488;13.462;2023-07-29T05:10:18;5.50;;;5.00;;
22211;SDS011;11275;52.488;13.462;2023-07-29T05:12:44;5.53;;;4.88;;
22211;SDS011;11275;52.488;13.462;2023-07-29T05:15:10;4.90;;;4.38;;
22211;SDS011;11275;52.488;13.462;2023-07-29T05:17:38;5.10;;;4.20;;
22211;SDS011;11275;52.488;13.462;2023-07-29T05:20:04;4.35;;;3.95;;
22211;SDS011;11275;52.488;13.462;2023-07-29T05:22:30;4.95;;;4.47;;
22211;SDS011;11275;52.488;13.462;2023-07-29T05:24:56;5.82;;;4.70;;
22211;SDS011;11275;52.488;13.462;2023-07-29T05:27:21;4.55;;;4.20;;
22211;SDS011;11275;52.488;13.462;2023-07-29T05:29:47;4.95;;;4.57;;
22211;SDS011;11275;52.488;13.462;2023-07-29T05:32:12;5.20;;;4.30;;
22211;SDS011;11275;52.488;13.462;2023-07-29T05:34:38;4.40;;;4.00;;
22211;SDS011;11275;52.488;13.462;2023-07-29T05:37:04;3.70;;;3.40;;
22211;SDS011;11275;52.488;13.462;2023-07-29T05:39:29;3.90;;;3.60;;
22211;SDS011;11275;52.488;13.462;2023-07-29T05:41:57;4.47;;;3.50;;
22211;SDS011;11275;52.488;13.462;2023-07-29T05:44:23;4.22;;;3.83;;
22211;SDS011;11275;52.488;13.462;2023-07-29T05:46:48;4.20;;;3.80;;
22211;SDS011;11275;52.488;13.462;2023-07-29T05:49:14;3.78;;;3.40;;
22211;SDS011;11275;52.488;13.462;2023-07-29T05:51:40;4.00;;;3.70;;
22211;SDS011;11275;52.488;13.462;2023-07-29T05:54:05;4.07;;;3.67;;
22211;SDS011;11275;52.488;13.462;2023-07-29T05:56:31;3.88;;;3.50;;
22211;SDS011;11275;52.488;13.462;2023-07-29T05:58:57;4.15;;;3.00;;
22211;SDS011;11275;52.488;13.462;2023-07-29T06:01:22;3.80;;;3.22;;
22211;SDS011;11275;52.488;13.462;2023-07-29T06:03:48;3.60;;;3.30;;
22211;SDS011;11275;52.488;13.462;2023-07-29T06:06:14;4.13;;;3.42;;
22211;SDS011;11275;52.488;13.462;2023-07-29T06:08:39;5.40;;;3.22;;
22211;SDS011;11275;52.488;13.462;2023-07-29T06:11:05;3.45;;;3.15;;
22211;SDS011;11275;52.488;13.462;2023-07-29T06:13:33;3.67;;;2.70;;
22211;SDS011;11275;52.488;13.462;2023-07-29T06:15:59;3.10;;;2.90;;
22211;SDS011;11275;52.488;13.462;2023-07-29T06:18:24;3.03;;;2.72;;
22211;SDS011;11275;52.488;13.462;2023-07-29T06:20:50;2.90;;;2.40;;
22211;SDS011;11275;52.488;13.462;2023-07-29T06:23:16;3.00;;;2.80;;
22211;SDS011;11275;52.488;13.462;2023-07-29T06:25:42;2.90;;;2.70;;
22211;SDS011;11275;52.488;13.462;2023-07-29T06:28:08;2.83;;;2.63;;
22211;SDS011;11275;52.488;13.462;2023-07-29T06:30:34;2.88;;;2.67;;
22211;SDS011;11275;52.488;13.462;2023-07-29T06:33:00;2.72;;;2.50;;
22211;SDS011;11275;52.488;13.462;2023-07-29T06:35:26;3.22;;;2.72;;
22211;SDS011;11275;52.488;13.462;2023-07-29T06:37:51;3.08;;;2.78;;
22211;SDS011;11275;52.488;13.462;2023-07-29T06:40:17;2.97;;;2.70;;
22211;SDS011;11275;52.488;13.462;2023-07-29T06:42:42;2.47;;;2.28;;
22211;SDS011;11275;52.488;13.462;2023-07-29T06:45:08;2.50;;;2.28;;
22211;SDS011;11275;52.488;13.462;2023-07-29T06:47:35;2.40;;;2.20;;
22211;SDS011;11275;52.488;13.462;2023-07-29T06:50:00;3.15;;;2.30;;
22211;SDS011;11275;52.488;13.462;2023-07-29T06:52:26;2.58;;;2.38;;
22211;SDS011;11275;52.488;13.462;2023-07-29T06:54:53;1.90;;;1.80;;
22211;SDS011;11275;52.488;13.462;2023-07-29T06:57:18;2.33;;;2.00;;
22211;SDS011;11275;52.488;13.462;2023-07-29T06:59:44;1.90;;;1.80;;
22211;SDS011;11275;52.488;13.462;2023-07-29T07:02:09;5.60;;;5.05;;
22211;SDS011;11275;52.488;13.462;2023-07-29T07:04:35;2.50;;;2.30;;
22211;SDS011;11275;52.488;13.462;2023-07-29T07:07:01;2.13;;;1.88;;
22211;SDS011;11275;52.488;13.462;2023-07-29T07:09:26;2.13;;;2.03;;
22211;SDS011;11275;52.488;13.462;2023-07-29T07:11:52;1.90;;;1.80;;
22211;SDS011;11275;52.488;13.462;2023-07-29T07:14:17;2.00;;;1.80;;
22211;SDS011;11275;52.488;13.462;2023-07-29T07:16:43;2.33;;;2.05;;
22211;SDS011;11275;52.488;13.462;2023-07-29T07:19:09;2.75;;;1.80;;
22211;SDS011;11275;52.488;13.462;2023-07-29T07:21:35;2.25;;;2.05;;
22211;SDS011;11275;52.488;13.462;2023-07-29T07:24:01;2.92;;;2.25;;
22211;SDS011;11275;52.488;13.462;2023-07-29T07:26:27;2.28;;;1.90;;
22211;SDS011;11275;52.488;13.462;2023-07-29T07:28:53;2.67;;;1.80;;
22211;SDS011;11275;52.488;13.462;2023-07-29T07:31:19;2.78;;;1.65;;
22211;SDS011;11275;52.488;13.462;2023-07-29T07:33:44;1.95;;;1.75;;
22211;SDS011;11275;52.488;13.462;2023-07-29T07:36:10;2.38;;;1.75;;
22211;SDS011;11275;52.488;13.462;2023-07-29T07:38:36;2.10;;;1.83;;
22211;SDS011;11275;52.488;13.462;2023-07-29T07:41:02;2.10;;;1.90;;
22211;SDS011;11275;52.488;13.462;2023-07-29T07:43:27;3.45;;;2.10;;
22211;SDS011;11275;52.488;13.462;2023-07-29T07:46:00;3.03;;;2.00;;
22211;SDS011;11275;52.488;13.462;2023-07-29T07:48:29;3.45;;;1.98;;
22211;SDS011;11275;52.488;13.462;2023-07-29T07:50:55;1.90;;;1.80;;
22211;SDS011;11275;52.488;13.462;2023-07-29T07:53:21;2.42;;;2.20;;
22211;SDS011;11275;52.488;13.462;2023-07-29T07:55:46;2.00;;;1.90;;
22211;SDS011;11275;52.488;13.462;2023-07-29T07:58:12;2.28;;;2.13;;
22211;SDS011;11275;52.488;13.462;2023-07-29T08:00:38;2.42;;;2.00;;
22211;SDS011;11275;52.488;13.462;2023-07-29T08:03:04;2.17;;;1.98;;
22211;SDS011;11275;52.488;13.462;2023-07-29T08:05:29;2.15;;;1.95;;
22211;SDS011;11275;52.488;13.462;2023-07-29T08:07:55;1.85;;;1.70;;
22211;SDS011;11275;52.488;13.462;2023-07-29T08:10:22;1.80;;;1.70;;
22211;SDS011;11275;52.488;13.462;2023-07-29T08:12:47;2.33;;;2.00;;
22211;SDS011;11275;52.488;13.462;2023-07-29T08:15:13;2.42;;;1.90;;
22211;SDS011;11275;52.488;13.462;2023-07-29T08:17:39;2.85;;;1.98;;
22211;SDS011;11275;52.488;13.462;2023-07-29T08:20:04;2.63;;;1.98;;
22211;SDS011;11275;52.488;13.462;2023-07-29T08:22:30;1.60;;;1.50;;
22211;SDS011;11275;52.488;13.462;2023-07-29T08:24:57;2.60;;;1.98;;
22211;SDS011;11275;52.488;13.462;2023-07-29T08:27:25;2.00;;;1.65;;
22211;SDS011;11275;52.488;13.462;2023-07-29T08:29:51;2.67;;;1.80;;
22211;SDS011;11275;52.488;13.462;2023-07-29T08:32:18;3.08;;;1.67;;
22211;SDS011;11275;52.488;13.462;2023-07-29T08:34:44;1.98;;;1.70;;
22211;SDS011;11275;52.488;13.462;2023-07-29T08:37:09;3.17;;;1.42;;
22211;SDS011;11275;52.488;13.462;2023-07-29T08:39:35;2.35;;;1.55;;
22211;SDS011;11275;52.488;13.462;2023-07-29T08:42:01;1.60;;;1.45;;
22211;SDS011;11275;52.488;13.462;2023-07-29T08:44:33;2.67;;;1.70;;
22211;SDS011;11275;52.488;13.462;2023-07-29T08:47:04;2.00;;;1.65;;
22211;SDS011;11275;52.488;13.462;2023-07-29T08:49:30;2.75;;;1.50;;
22211;SDS011;11275;52.488;13.462;2023-07-29T08:51:57;1.70;;;1.60;;
22211;SDS011;11275;52.488;13.462;2023-07-29T08:54:23;1.50;;;1.40;;
22211;SDS011;11275;52.488;13.462;2023-07-29T08:56:49;2.15;;;1.48;;
22211;SDS011;11275;52.488;13.462;2023-07-29T08:59:15;1.40;;;1.30;;
22211;SDS011;11275;52.488;13.462;2023-07-29T09:01:42;2.17;;;1.30;;
22211;SDS011;11275;52.488;13.462;2023-07-29T09:04:08;4.82;;;1.40;;
22211;SDS011;11275;52.488;13.462;2023-07-29T09:06:34;1.73;;;1.40;;
22211;SDS011;11275;52.488;13.462;2023-07-29T09:09:01;1.70;;;1.55;;
22211;SDS011;11275;52.488;13.462;2023-07-29T09:11:27;1.40;;;1.30;;
22211;SDS011;11275;52.488;13.462;2023-07-29T09:13:54;1.55;;;1.30;;
22211;SDS011;11275;52.488;13.462;2023-07-29T09:16:20;2.45;;;1.42;;
22211;SDS011;11275;52.488;13.462;2023-07-29T09:18:49;1.40;;;1.17;;
22211;SDS011;11275;52.488;13.462;2023-07-29T09:21:25;1.20;;;1.10;;
22211;SDS011;11275;52.488;13.462;2023-07-29T09:23:52;2.55;;;1.30;;
22211;SDS011;11275;52.488;13.462;2023-07-29T09:26:24;1.40;;;1.27;;
22211;SDS011;11275;52.488;13.462;2023-07-29T09:28:55;1.50;;;1.30;;
22211;SDS011;11275;52.488;13.462;2023-07-29T09:31:22;1.25;;;1.15;;
22211;SDS011;11275;52.488;13.462;2023-07-29T09:33:49;3.17;;;1.20;;
22211;SDS011;11275;52.488;13.462;2023-07-29T09:36:15;1.63;;;1.40;;
22211;SDS011;11275;52.488;13.462;2023-07-29T09:38:41;1.15;;;1.05;;
22211;SDS011;11275;52.488;13.462;2023-07-29T09:41:07;1.92;;;1.10;;
22211;SDS011;11275;52.488;13.462;2023-07-29T09:43:36;3.00;;;1.45;;
22211;SDS011;11275;52.488;13.462;2023-07-29T09:46:02;1.58;;;1.20;;
22211;SDS011;11275;52.488;13.462;2023-07-29T09:48:36;2.08;;;1.20;;
22211;SDS011;11275;52.488;13.462;2023-07-29T09:51:12;1.30;;;1.20;;
22211;SDS011;11275;52.488;13.462;2023-07-29T09:53:39;2.17;;;1.10;;
22211;SDS011;11275;52.488;13.462;2023-07-29T09:56:07;1.40;;;1.10;;
22211;SDS011;11275;52.488;13.462;2023-07-29T09:58:33;1.27;;;1.17;;
22211;SDS011;11275;52.488;13.462;2023-07-29T10:01:00;1.70;;;0.90;;
22211;SDS011;11275;52.488;13.462;2023-07-29T10:03:26;2.78;;;1.10;;
22211;SDS011;11275;52.488;13.462;2023-07-29T10:05:53;1.40;;;1.20;;
22211;SDS011;11275;52.488;13.462;2023-07-29T10:08:20;1.10;;;1.00;;
22211;SDS011;11275;52.488;13.462;2023-07-29T10:10:49;4.03;;;1.30;;
22211;SDS011;11275;52.488;13.462;2023-07-29T10:13:15;2.05;;;1.10;;
22211;SDS011;11275;52.488;13.462;2023-07-29T10:15:42;2.33;;;1.00;;
22211;SDS011;11275;52.488;13.462;2023-07-29T10:18:10;3.13;;;1.00;;
22211;SDS011;11275;52.488;13.462;2023-07-29T10:20:36;0.98;;;0.80;;
22211;SDS011;11275;52.488;13.462;2023-07-29T10:23:03;1.10;;;1.00;;
22211;SDS011;11275;52.488;13.462;2023-07-29T10:25:43;0.80;;;0.80;;
22211;SDS011;11275;52.488;13.462;2023-07-29T10:28:12;2.33;;;0.98;;
22211;SDS011;11275;52.488;13.462;2023-07-29T10:30:40;1.10;;;0.90;;
22211;SDS011;11275;52.488;13.462;2023-07-29T10:33:07;0.90;;;0.90;;
22211;SDS011;11275;52.488;13.462;2023-07-29T10:35:33;1.08;;;0.80;;
22211;SDS011;11275;52.488;13.462;2023-07-29T10:38:00;3.17;;;1.20;;
22211;SDS011;11275;52.488;13.462;2023-07-29T10:40:31;1.05;;;0.80;;
22211;SDS011;11275;52.488;13.462;2023-07-29T10:43:10;2.25;;;0.80;;
22211;SDS011;11275;52.488;13.462;2023-07-29T10:45:37;1.00;;;0.80;;
22211;SDS011;11275;52.488;13.462;2023-07-29T10:48:11;2.15;;;0.90;;
22211;SDS011;11275;52.488;13.462;2023-07-29T10:50:37;2.00;;;0.70;;
22211;SDS011;11275;52.488;13.462;2023-07-29T10:53:03;0.75;;;0.68;;
22211;SDS011;11275;52.488;13.462;2023-07-29T10:55:32;2.70;;;1.05;;
22211;SDS011;11275;52.488;13.462;2023-07-29T10:58:05;1.40;;;0.80;;
22211;SDS011;11275;52.488;13.462;2023-07-29T11:00:33;1.85;;;0.68;;
22211;SDS011;11275;52.488;13.462;2023-07-29T11:03:02;1.70;;;0.80;;
22211;SDS011;11275;52.488;13.462;2023-07-29T11:05:41;2.25;;;0.65;;
22211;SDS011;11275;52.488;13.462;2023-07-29T11:10:57;0.88;;;0.68;;
22211;SDS011;11275;52.488;13.462;2023-07-29T11:13:34;1.25;;;0.73;;
22211;SDS011;11275;52.488;13.462;2023-07-29T11:16:01;1.10;;;0.70;;
22211;SDS011;11275;52.488;13.462;2023-07-29T11:18:32;1.38;;;0.80;;
22211;SDS011;11275;52.488;13.462;2023-07-29T11:20:59;1.15;;;0.70;;
22211;SDS011;11275;52.488;13.462;2023-07-29T11:23:35;10.13;;;1.10;;
22211;SDS011;11275;52.488;13.462;2023-07-29T11:26:02;8.55;;;2.10;;
22211;SDS011;11275;52.488;13.462;2023-07-29T11:28:29;7.88;;;2.05;;
22211;SDS011;11275;52.488;13.462;2023-07-29T11:30:55;2.15;;;0.90;;
22211;SDS011;11275;52.488;13.462;2023-07-29T11:33:23;6.97;;;6.28;;
22211;SDS011;11275;52.488;13.462;2023-07-29T11:35:50;3.65;;;0.50;;
22211;SDS011;11275;52.488;13.462;2023-07-29T11:38:17;4.25;;;0.40;;
22211;SDS011;11275;52.488;13.462;2023-07-29T11:40:43;0.93;;;0.40;;
22211;SDS011;11275;52.488;13.462;2023-07-29T11:43:18;1.95;;;0.80;;
22211;SDS011;11275;52.488;13.462;2023-07-29T11:45:44;1.75;;;0.38;;
22211;SDS011;11275;52.488;13.462;2023-07-29T11:48:10;1.63;;;0.32;;
22211;SDS011;11275;52.488;13.462;2023-07-29T11:50:35;0.22;;;0.20;;
22211;SDS011;11275;52.488;13.462;2023-07-29T11:53:02;0.75;;;0.30;;
22211;SDS011;11275;52.488;13.462;2023-07-29T11:55:28;2.28;;;0.55;;
22211;SDS011;11275;52.488;13.462;2023-07-29T11:57:53;0.65;;;0.40;;
22211;SDS011;11275;52.488;13.462;2023-07-29T12:00:20;1.10;;;0.50;;
22211;SDS011;11275;52.488;13.462;2023-07-29T12:02:46;1.83;;;0.50;;
22211;SDS011;11275;52.488;13.462;2023-07-29T12:05:14;1.25;;;0.50;;
22211;SDS011;11275;52.488;13.462;2023-07-29T12:07:41;1.00;;;0.50;;
22211;SDS011;11275;52.488;13.462;2023-07-29T12:10:08;0.93;;;0.57;;
22211;SDS011;11275;52.488;13.462;2023-07-29T12:12:47;1.13;;;0.60;;
22211;SDS011;11275;52.488;13.462;2023-07-29T12:15:22;2.30;;;0.65;;
22211;SDS011;11275;52.488;13.462;2023-07-29T12:17:52;1.27;;;0.47;;
22211;SDS011;11275;52.488;13.462;2023-07-29T12:20:20;1.08;;;0.60;;
22211;SDS011;11275;52.488;13.462;2023-07-29T12:22:51;2.67;;;0.77;;
22211;SDS011;11275;52.488;13.462;2023-07-29T12:25:25;0.90;;;0.80;;
22211;SDS011;11275;52.488;13.462;2023-07-29T12:27:51;1.10;;;1.00;;
22211;SDS011;11275;52.488;13.462;2023-07-29T12:30:19;1.83;;;1.10;;
22211;SDS011;11275;52.488;13.462;2023-07-29T12:32:49;2.90;;;1.38;;
22211;SDS011;11275;52.488;13.462;2023-07-29T12:35:15;3.47;;;1.17;;
22211;SDS011;11275;52.488;13.462;2023-07-29T12:37:41;4.40;;;1.30;;
22211;SDS011;11275;52.488;13.462;2023-07-29T12:40:09;3.92;;;1.38;;
22211;SDS011;11275;52.488;13.462;2023-07-29T12:42:48;2.08;;;1.20;;
22211;SDS011;11275;52.488;13.462;2023-07-29T12:45:15;1.50;;;1.13;;
22211;SDS011;11275;52.488;13.462;2023-07-29T12:47:42;1.73;;;1.38;;
22211;SDS011;11275;52.488;13.462;2023-07-29T12:50:07;1.50;;;1.00;;
22211;SDS011;11275;52.488;13.462;2023-07-29T12:52:33;3.35;;;1.60;;
22211;SDS011;11275;52.488;13.462;2023-07-29T12:54:59;3.97;;;2.33;;
22211;SDS011;11275;52.488;13.462;2023-07-29T12:57:24;5.82;;;1.40;;
22211;SDS011;11275;52.488;13.462;2023-07-29T12:59:50;4.75;;;1.65;;
22211;SDS011;11275;52.488;13.462;2023-07-29T13:02:15;2.13;;;1.50;;
22211;SDS011;11275;52.488;13.462;2023-07-29T13:04:41;3.15;;;2.03;;
22211;SDS011;11275;52.488;13.462;2023-07-29T13:07:07;1.75;;;1.52;;
22211;SDS011;11275;52.488;13.462;2023-07-29T13:09:32;2.00;;;1.42;;
22211;SDS011;11275;52.488;13.462;2023-07-29T13:11:58;2.13;;;1.38;;
22211;SDS011;11275;52.488;13.462;2023-07-29T13:14:23;3.40;;;1.80;;
22211;SDS011;11275;52.488;13.462;2023-07-29T13:16:51;2.22;;;1.70;;
22211;SDS011;11275;52.488;13.462;2023-07-29T13:19:18;2.10;;;1.42;;
22211;SDS011;11275;52.488;13.462;2023-07-29T13:21:44;1.95;;;1.77;;
22211;SDS011;11275;52.488;13.462;2023-07-29T13:24:09;2.63;;;2.20;;
22211;SDS011;11275;52.488;13.462;2023-07-29T13:26:35;2.45;;;1.38;;
22211;SDS011;11275;52.488;13.462;2023-07-29T13:29:00;3.78;;;2.40;;
22211;SDS011;11275;52.488;13.462;2023-07-29T13:31:26;4.45;;;2.13;;
22211;SDS011;11275;52.488;13.462;2023-07-29T13:33:51;2.42;;;1.92;;
22211;SDS011;11275;52.488;13.462;2023-07-29T13:36:17;1.63;;;1.20;;
22211;SDS011;11275;52.488;13.462;2023-07-29T13:38:43;1.52;;;1.30;;
22211;SDS011;11275;52.488;13.462;2023-07-29T13:41:08;1.40;;;1.08;;
22211;SDS011;11275;52.488;13.462;2023-07-29T13:43:34;1.40;;;1.30;;
22211;SDS011;11275;52.488;13.462;2023-07-29T13:45:59;2.03;;;1.85;;
22211;SDS011;11275;52.488;13.462;2023-07-29T13:48:25;2.80;;;2.58;;
22211;SDS011;11275;52.488;13.462;2023-07-29T13:50:51;3.35;;;3.05;;
22211;SDS011;11275;52.488;13.462;2023-07-29T13:53:17;2.42;;;2.22;;
22211;SDS011;11275;52.488;13.462;2023-07-29T13:55:43;1.90;;;1.67;;
22211;SDS011;11275;52.488;13.462;2023-07-29T13:58:08;3.70;;;1.80;;
22211;SDS011;11275;52.488;13.462;2023-07-29T14:00:34;2.05;;;1.88;;
22211;SDS011;11275;52.488;13.462;2023-07-29T14:03:00;2.33;;;1.50;;
22211;SDS011;11275;52.488;13.462;2023-07-29T14:05:25;1.67;;;1.08;;
22211;SDS011;11275;52.488;13.462;2023-07-29T14:07:51;1.58;;;1.30;;
22211;SDS011;11275;52.488;13.462;2023-07-29T14:10:16;1.35;;;1.05;;
22211;SDS011;11275;52.488;13.462;2023-07-29T14:12:42;1.00;;;0.90;;
22211;SDS011;11275;52.488;13.462;2023-07-29T14:15:08;0.88;;;0.50;;
22211;SDS011;11275;52.488;13.462;2023-07-29T14:17:33;1.92;;;0.80;;
22211;SDS011;11275;52.488;13.462;2023-07-29T14:19:59;3.20;;;0.57;;
22211;SDS011;11275;52.488;13.462;2023-07-29T14:22:25;1.02;;;0.85;;
22211;SDS011;11275;52.488;13.462;2023-07-29T14:24:50;0.85;;;0.70;;
22211;SDS011;11275;52.488;13.462;2023-07-29T14:27:16;0.80;;;0.60;;
22211;SDS011;11275;52.488;13.462;2023-07-29T14:29:42;0.55;;;0.50;;
22211;SDS011;11275;52.488;13.462;2023-07-29T14:32:07;0.50;;;0.50;;
22211;SDS011;11275;52.488;13.462;2023-07-29T14:34:33;0.85;;;0.57;;
22211;SDS011;11275;52.488;13.462;2023-07-29T14:36:58;0.95;;;0.85;;
22211;SDS011;11275;52.488;13.462;2023-07-29T14:39:24;3.22;;;1.55;;